createdAt,value
2018-12-02T00:00:08.418Z,0
2018-12-02T00:01:08.408Z,0
2018-12-02T00:02:08.397Z,0
2018-12-02T00:03:08.375Z,0
2018-12-02T00:04:08.361Z,0
2018-12-02T00:05:08.347Z,0
2018-12-02T00:06:08.336Z,0
2018-12-02T00:07:08.071Z,0
2018-12-02T00:08:08.304Z,0
2018-12-02T00:09:08.297Z,0
2018-12-02T00:10:08.273Z,0
2018-12-02T00:11:08.262Z,0
2018-12-02T00:12:08.256Z,0
2018-12-02T00:13:08.234Z,0
2018-12-02T00:14:08.224Z,0
2018-12-02T00:15:08.207Z,0
2018-12-02T00:16:08.193Z,0
2018-12-02T00:17:08.182Z,0
2018-12-02T00:18:08.166Z,0
2018-12-02T00:19:08.148Z,0
2018-12-02T00:20:08.160Z,0
2018-12-02T00:21:08.122Z,0
2018-12-02T00:22:08.108Z,0
2018-12-02T00:23:08.094Z,0
2018-12-02T00:24:08.084Z,0
2018-12-02T00:25:08.066Z,0
2018-12-02T00:26:08.050Z,0
2018-12-02T00:27:08.035Z,0
2018-12-02T00:28:08.029Z,0
2018-12-02T00:29:08.015Z,0
2018-12-02T00:30:07.998Z,0
2018-12-02T00:31:07.985Z,0
2018-12-02T00:32:07.974Z,0
2018-12-02T00:33:07.958Z,0
2018-12-02T00:34:07.942Z,0
2018-12-02T00:35:07.925Z,0
2018-12-02T00:36:07.914Z,0
2018-12-02T00:37:07.896Z,0
2018-12-02T00:38:07.886Z,0
2018-12-02T00:39:07.642Z,0
2018-12-02T00:40:07.892Z,0
2018-12-02T00:41:07.839Z,0
2018-12-02T00:42:07.833Z,0
2018-12-02T00:43:07.815Z,0
2018-12-02T00:44:09.093Z,0
2018-12-02T00:45:07.783Z,0
2018-12-02T00:46:07.772Z,0
2018-12-02T00:47:07.754Z,0
2018-12-02T00:48:07.748Z,0
2018-12-02T00:49:07.734Z,0
2018-12-02T00:50:07.718Z,0
2018-12-02T00:51:07.705Z,0
2018-12-02T00:52:07.701Z,0
2018-12-02T00:53:07.685Z,0
2018-12-02T00:54:07.660Z,0
2018-12-02T00:55:07.648Z,0
2018-12-02T00:56:07.632Z,0
2018-12-02T00:57:07.618Z,0
2018-12-02T00:58:07.638Z,0
2018-12-02T00:59:07.591Z,0
2018-12-02T01:00:07.575Z,0
2018-12-02T01:01:07.560Z,0
2018-12-02T01:02:07.554Z,0
2018-12-02T01:03:07.540Z,0
2018-12-02T01:04:07.528Z,0
2018-12-02T01:05:07.506Z,0
2018-12-02T01:06:07.486Z,0
2018-12-02T01:07:07.481Z,0
2018-12-02T01:08:07.462Z,0
2018-12-02T01:09:07.452Z,0
2018-12-02T01:10:07.438Z,0
2018-12-02T01:11:07.426Z,0
2018-12-02T01:12:07.406Z,0
2018-12-02T01:13:07.398Z,0
2018-12-02T01:14:07.385Z,0
2018-12-02T01:15:07.362Z,0
2018-12-02T01:16:07.143Z,0
2018-12-02T01:17:07.092Z,0
2018-12-02T01:18:07.328Z,0
2018-12-02T01:19:07.315Z,0
2018-12-02T01:20:07.307Z,0
2018-12-02T01:21:07.280Z,0
2018-12-02T01:22:07.260Z,0
2018-12-02T01:23:07.253Z,0
2018-12-02T01:24:07.241Z,0
2018-12-02T01:25:07.222Z,0
2018-12-02T01:26:07.214Z,0
2018-12-02T01:27:07.208Z,0
2018-12-02T01:28:07.178Z,0
2018-12-02T01:29:07.166Z,0
2018-12-02T01:30:07.156Z,0
2018-12-02T01:31:07.143Z,0
2018-12-02T01:32:07.123Z,0
2018-12-02T01:33:07.112Z,0
2018-12-02T01:34:07.092Z,0
2018-12-02T01:35:06.855Z,0
2018-12-02T01:36:07.069Z,0
2018-12-02T01:37:07.050Z,0
2018-12-02T01:38:07.042Z,0
2018-12-02T01:39:07.030Z,0
2018-12-02T01:40:07.009Z,0
2018-12-02T01:41:07.003Z,0
2018-12-02T01:42:06.992Z,0
2018-12-02T01:43:06.978Z,0
2018-12-02T01:44:06.955Z,0
2018-12-02T01:45:06.942Z,0
2018-12-02T01:46:06.925Z,0
2018-12-02T01:47:06.910Z,0
2018-12-02T01:48:06.898Z,0
2018-12-02T01:49:06.879Z,0
2018-12-02T01:50:06.902Z,0
2018-12-02T01:51:06.855Z,0
2018-12-02T01:52:06.845Z,0
2018-12-02T01:53:06.824Z,0
2018-12-02T01:54:06.818Z,0
2018-12-02T01:55:06.800Z,0
2018-12-02T01:56:06.787Z,0
2018-12-02T01:57:06.774Z,0
2018-12-02T01:58:06.755Z,0
2018-12-02T01:59:06.748Z,0
2018-12-02T02:00:06.739Z,0
2018-12-02T02:01:06.715Z,0
2018-12-02T02:02:06.703Z,0
2018-12-02T02:03:06.445Z,0
2018-12-02T02:04:06.676Z,0
2018-12-02T02:05:06.705Z,0
2018-12-02T02:06:06.652Z,0
2018-12-02T02:07:06.634Z,0
2018-12-02T02:08:06.619Z,0
2018-12-02T02:09:06.608Z,0
2018-12-02T02:10:06.595Z,0
2018-12-02T02:11:06.574Z,0
2018-12-02T02:12:06.563Z,0
2018-12-02T02:13:06.591Z,0
2018-12-02T02:14:06.537Z,0
2018-12-02T02:15:06.520Z,0
2018-12-02T02:16:06.513Z,0
2018-12-02T02:17:06.507Z,0
2018-12-02T02:18:06.483Z,0
2018-12-02T02:19:06.465Z,0
2018-12-02T02:20:06.490Z,0
2018-12-02T02:21:06.441Z,0
2018-12-02T02:22:06.423Z,0
2018-12-02T02:23:06.406Z,0
2018-12-02T02:24:06.397Z,0
2018-12-02T02:25:06.378Z,0
2018-12-02T02:26:06.372Z,0
2018-12-02T02:27:06.413Z,0
2018-12-02T02:28:06.333Z,0
2018-12-02T02:29:06.090Z,0
2018-12-02T02:30:06.314Z,0
2018-12-02T02:31:06.305Z,0
2018-12-02T02:32:06.283Z,0
2018-12-02T02:33:06.269Z,0
2018-12-02T02:34:06.260Z,0
2018-12-02T02:35:06.243Z,0
2018-12-02T02:36:06.227Z,0
2018-12-02T02:37:06.217Z,0
2018-12-02T02:38:06.207Z,0
2018-12-02T02:39:06.185Z,0
2018-12-02T02:40:06.173Z,0
2018-12-02T02:41:06.176Z,0
2018-12-02T02:42:06.138Z,0
2018-12-02T02:43:06.126Z,0
2018-12-02T02:44:05.876Z,0
2018-12-02T02:45:06.117Z,0
2018-12-02T02:46:06.406Z,0
2018-12-02T02:47:06.118Z,0
2018-12-02T02:48:06.072Z,0
2018-12-02T02:49:06.060Z,0
2018-12-02T02:50:06.042Z,0
2018-12-02T02:51:06.027Z,0
2018-12-02T02:52:06.012Z,0
2018-12-02T02:53:05.995Z,0
2018-12-02T02:54:05.736Z,0
2018-12-02T02:55:05.963Z,0
2018-12-02T02:56:05.951Z,0
2018-12-02T02:57:05.940Z,0
2018-12-02T02:58:05.690Z,0
2018-12-02T02:59:05.917Z,0
2018-12-02T03:00:05.902Z,0
2018-12-02T03:01:05.955Z,0
2018-12-02T03:02:05.863Z,0
2018-12-02T03:03:05.918Z,0
2018-12-02T03:04:05.837Z,0
2018-12-02T03:05:05.835Z,0
2018-12-02T03:06:05.812Z,0
2018-12-02T03:07:05.795Z,0
2018-12-02T03:08:05.788Z,0
2018-12-02T03:09:05.776Z,0
2018-12-02T03:10:05.756Z,0
2018-12-02T03:11:05.742Z,0
2018-12-02T03:12:05.737Z,0
2018-12-02T03:13:05.718Z,0
2018-12-02T03:14:05.695Z,0
2018-12-02T03:15:05.695Z,0
2018-12-02T03:16:05.675Z,0
2018-12-02T03:17:05.658Z,0
2018-12-02T03:18:05.667Z,0
2018-12-02T03:19:05.683Z,0
2018-12-02T03:20:05.614Z,0
2018-12-02T03:21:05.612Z,0
2018-12-02T03:22:05.592Z,0
2018-12-02T03:23:05.679Z,0
2018-12-02T03:24:05.567Z,0
2018-12-02T03:25:05.550Z,0
2018-12-02T03:26:05.550Z,0
2018-12-02T03:27:05.525Z,0
2018-12-02T03:28:05.266Z,0
2018-12-02T03:29:05.530Z,0
2018-12-02T03:30:05.483Z,0
2018-12-02T03:31:05.577Z,0
2018-12-02T03:32:05.480Z,0
2018-12-02T03:33:05.467Z,0
2018-12-02T03:34:05.425Z,0
2018-12-02T03:35:05.431Z,0
2018-12-02T03:36:05.402Z,0
2018-12-02T03:37:05.391Z,0
2018-12-02T03:38:05.141Z,0
2018-12-02T03:39:05.370Z,0
2018-12-02T03:40:05.347Z,0
2018-12-02T03:41:05.331Z,0
2018-12-02T03:42:05.321Z,0
2018-12-02T03:43:05.320Z,0
2018-12-02T03:44:05.293Z,0
2018-12-02T03:45:05.282Z,0
2018-12-02T03:46:05.267Z,0
2018-12-02T03:47:05.268Z,0
2018-12-02T03:48:05.246Z,0
2018-12-02T03:49:05.225Z,0
2018-12-02T03:50:05.219Z,0
2018-12-02T03:51:05.206Z,0
2018-12-02T03:52:05.197Z,0
2018-12-02T03:53:05.176Z,0
2018-12-02T03:54:05.166Z,0
2018-12-02T03:55:05.146Z,0
2018-12-02T03:56:05.134Z,0
2018-12-02T03:57:05.126Z,0
2018-12-02T03:58:05.125Z,0
2018-12-02T03:59:05.095Z,0
2018-12-02T04:00:05.092Z,0
2018-12-02T04:01:05.084Z,0
2018-12-02T04:02:05.065Z,0
2018-12-02T04:03:04.812Z,0
2018-12-02T04:04:05.030Z,0
2018-12-02T04:05:05.016Z,0
2018-12-02T04:06:05.031Z,0
2018-12-02T04:07:04.995Z,0
2018-12-02T04:08:05.005Z,0
2018-12-02T04:09:04.972Z,0
2018-12-02T04:10:04.956Z,0
2018-12-02T04:11:04.941Z,0
2018-12-02T04:12:04.940Z,0
2018-12-02T04:13:04.911Z,0
2018-12-02T04:14:04.915Z,0
2018-12-02T04:15:04.662Z,0
2018-12-02T04:16:04.884Z,0
2018-12-02T04:17:04.674Z,0
2018-12-02T04:18:04.872Z,0
2018-12-02T04:19:04.837Z,0
2018-12-02T04:20:04.823Z,0
2018-12-02T04:21:04.811Z,0
2018-12-02T04:22:04.562Z,0
2018-12-02T04:23:04.811Z,0
2018-12-02T04:24:04.779Z,0
2018-12-02T04:25:04.759Z,0
2018-12-02T04:26:04.771Z,0
2018-12-02T04:27:04.743Z,0
2018-12-02T04:28:04.741Z,0
2018-12-02T04:29:04.707Z,0
2018-12-02T04:30:04.704Z,0
2018-12-02T04:31:04.686Z,0
2018-12-02T04:32:04.688Z,0
2018-12-02T04:33:04.661Z,0
2018-12-02T04:34:04.652Z,0
2018-12-02T04:35:04.639Z,0
2018-12-02T04:36:04.625Z,0
2018-12-02T04:37:04.604Z,0
2018-12-02T04:38:04.597Z,0
2018-12-02T04:39:04.582Z,0
2018-12-02T04:40:04.633Z,0
2018-12-02T04:41:04.558Z,0
2018-12-02T04:42:04.543Z,0
2018-12-02T04:43:04.542Z,0
2018-12-02T04:44:04.513Z,0
2018-12-02T04:45:04.529Z,0
2018-12-02T04:46:04.491Z,0
2018-12-02T04:47:04.480Z,0
2018-12-02T04:48:04.468Z,0
2018-12-02T04:49:04.463Z,0
2018-12-02T04:50:04.453Z,0
2018-12-02T04:51:04.429Z,0
2018-12-02T04:52:04.419Z,0
2018-12-02T04:53:04.413Z,0
2018-12-02T04:54:04.150Z,0
2018-12-02T04:55:04.379Z,0
2018-12-02T04:56:04.365Z,0
2018-12-02T04:57:04.354Z,0
2018-12-02T04:58:04.348Z,0
2018-12-02T04:59:04.337Z,0
2018-12-02T05:00:04.328Z,0
2018-12-02T05:01:04.329Z,0
2018-12-02T05:02:04.287Z,0
2018-12-02T05:03:04.274Z,0
2018-12-02T05:04:04.261Z,0
2018-12-02T05:05:04.254Z,0
2018-12-02T05:06:04.236Z,0
2018-12-02T05:07:04.229Z,0
2018-12-02T05:08:04.219Z,0
2018-12-02T05:09:04.201Z,0
2018-12-02T05:10:04.191Z,0
2018-12-02T05:11:04.177Z,0
2018-12-02T05:12:04.162Z,0
2018-12-02T05:13:04.160Z,0
2018-12-02T05:14:04.134Z,0
2018-12-02T05:15:04.126Z,0
2018-12-02T05:16:04.124Z,0
2018-12-02T05:17:04.103Z,0
2018-12-02T05:18:04.086Z,0
2018-12-02T05:19:03.847Z,0
2018-12-02T05:20:04.077Z,0
2018-12-02T05:21:04.047Z,0
2018-12-02T05:22:04.040Z,0
2018-12-02T05:23:04.036Z,0
2018-12-02T05:24:04.023Z,0
2018-12-02T05:25:04.003Z,0
2018-12-02T05:26:03.758Z,0
2018-12-02T05:27:03.975Z,0
2018-12-02T05:28:03.968Z,0
2018-12-02T05:29:03.958Z,0
2018-12-02T05:30:03.937Z,0
2018-12-02T05:31:03.931Z,0
2018-12-02T05:32:03.907Z,0
2018-12-02T05:33:03.903Z,0
2018-12-02T05:34:03.890Z,0
2018-12-02T05:35:03.880Z,0
2018-12-02T05:36:03.858Z,0
2018-12-02T05:37:03.842Z,0
2018-12-02T05:38:03.826Z,0
2018-12-02T05:39:03.821Z,0
2018-12-02T05:40:03.804Z,0
2018-12-02T05:41:03.840Z,0
2018-12-02T05:42:03.778Z,0
2018-12-02T05:43:03.762Z,0
2018-12-02T05:44:03.758Z,0
2018-12-02T05:45:03.738Z,0
2018-12-02T05:46:03.732Z,0
2018-12-02T05:47:03.712Z,0
2018-12-02T05:48:03.710Z,0
2018-12-02T05:49:03.695Z,0
2018-12-02T05:50:03.680Z,0
2018-12-02T05:51:03.668Z,0
2018-12-02T05:52:03.659Z,0
2018-12-02T05:53:03.649Z,0
2018-12-02T05:54:03.635Z,0
2018-12-02T05:55:03.611Z,0
2018-12-02T05:56:03.614Z,0
2018-12-02T05:57:03.589Z,0
2018-12-02T05:58:03.574Z,0
2018-12-02T05:59:03.567Z,0
2018-12-02T06:00:03.564Z,0
2018-12-02T06:01:03.539Z,0
2018-12-02T06:02:03.528Z,0
2018-12-02T06:03:03.514Z,0
2018-12-02T06:04:03.503Z,0
2018-12-02T06:05:03.498Z,0
2018-12-02T06:06:03.476Z,0
2018-12-02T06:07:03.461Z,0
2018-12-02T06:08:03.449Z,0
2018-12-02T06:09:03.439Z,0
2018-12-02T06:10:03.420Z,0
2018-12-02T06:11:03.414Z,0
2018-12-02T06:12:03.398Z,0
2018-12-02T06:13:03.390Z,0
2018-12-02T06:14:03.374Z,0
2018-12-02T06:15:03.376Z,0
2018-12-02T06:16:03.348Z,0
2018-12-02T06:17:03.335Z,0
2018-12-02T06:18:03.324Z,0
2018-12-02T06:19:03.312Z,0
2018-12-02T06:20:09.554Z,0
2018-12-02T06:21:04.088Z,0
2018-12-02T06:22:03.278Z,0
2018-12-02T06:23:03.264Z,0
2018-12-02T06:24:03.248Z,0
2018-12-02T06:25:03.248Z,0
2018-12-02T06:26:03.235Z,0
2018-12-02T06:27:03.214Z,0
2018-12-02T06:28:03.201Z,0
2018-12-02T06:29:03.183Z,0
2018-12-02T06:30:03.168Z,0
2018-12-02T06:31:03.172Z,0
2018-12-02T06:32:03.150Z,0
2018-12-02T06:33:03.148Z,0
2018-12-02T06:34:03.126Z,0
2018-12-02T06:35:03.118Z,0
2018-12-02T06:36:03.102Z,0
2018-12-02T06:37:03.092Z,0
2018-12-02T06:38:03.090Z,0
2018-12-02T06:39:03.066Z,0
2018-12-02T06:40:03.073Z,0
2018-12-02T06:41:03.054Z,0
2018-12-02T06:42:03.021Z,0
2018-12-02T06:43:03.021Z,0
2018-12-02T06:44:03.003Z,0
2018-12-02T06:45:03.038Z,0
2018-12-02T06:46:02.972Z,0
2018-12-02T06:47:02.962Z,0
2018-12-02T06:48:02.946Z,0
2018-12-02T06:49:02.936Z,0
2018-12-02T06:50:02.940Z,5
2018-12-02T06:51:02.921Z,5
2018-12-02T06:52:02.902Z,5
2018-12-02T06:53:02.887Z,5
2018-12-02T06:54:02.874Z,5
2018-12-02T06:55:02.856Z,5
2018-12-02T06:56:02.848Z,5
2018-12-02T06:57:02.837Z,5
2018-12-02T06:58:02.875Z,5
2018-12-02T06:59:02.813Z,5
2018-12-02T07:00:02.801Z,5
2018-12-02T07:01:02.788Z,5
2018-12-02T07:02:02.779Z,5
2018-12-02T07:03:02.761Z,10
2018-12-02T07:04:02.753Z,10
2018-12-02T07:05:02.740Z,10
2018-12-02T07:06:02.729Z,10
2018-12-02T07:07:02.712Z,10
2018-12-02T07:08:02.699Z,10
2018-12-02T07:09:02.689Z,10
2018-12-02T07:10:02.677Z,10
2018-12-02T07:11:02.661Z,15
2018-12-02T07:12:02.656Z,15
2018-12-02T07:13:02.637Z,15
2018-12-02T07:14:02.630Z,20
2018-12-02T07:15:02.614Z,20
2018-12-02T07:16:02.603Z,20
2018-12-02T07:17:02.587Z,20
2018-12-02T07:18:02.577Z,25
2018-12-02T07:19:02.568Z,25
2018-12-02T07:20:02.557Z,30
2018-12-02T07:21:02.303Z,30
2018-12-02T07:22:02.531Z,30
2018-12-02T07:23:02.514Z,35
2018-12-02T07:24:02.261Z,35
2018-12-02T07:25:02.490Z,35
2018-12-02T07:26:02.478Z,35
2018-12-02T07:27:02.466Z,35
2018-12-02T07:28:02.219Z,35
2018-12-02T07:29:02.445Z,40
2018-12-02T07:30:02.431Z,40
2018-12-02T07:31:02.424Z,40
2018-12-02T07:32:02.416Z,40
2018-12-02T07:33:02.392Z,40
2018-12-02T07:34:02.382Z,40
2018-12-02T07:35:02.371Z,40
2018-12-02T07:36:02.361Z,40
2018-12-02T07:37:02.350Z,40
2018-12-02T07:38:02.339Z,45
2018-12-02T07:39:02.320Z,40
2018-12-02T07:40:02.313Z,40
2018-12-02T07:41:02.309Z,40
2018-12-02T07:42:02.284Z,40
2018-12-02T07:43:02.275Z,40
2018-12-02T07:44:02.260Z,40
2018-12-02T07:45:02.246Z,40
2018-12-02T07:46:02.242Z,40
2018-12-02T07:47:02.222Z,35
2018-12-02T07:48:02.213Z,35
2018-12-02T07:49:02.199Z,35
2018-12-02T07:50:02.190Z,35
2018-12-02T07:51:02.178Z,35
2018-12-02T07:52:02.167Z,35
2018-12-02T07:53:02.152Z,35
2018-12-02T07:54:02.135Z,40
2018-12-02T07:55:02.131Z,40
2018-12-02T07:56:02.116Z,45
2018-12-02T07:57:02.107Z,45
2018-12-02T07:58:02.090Z,45
2018-12-02T07:59:02.087Z,40
2018-12-02T08:00:02.060Z,40
2018-12-02T08:01:02.051Z,45
2018-12-02T08:02:02.042Z,45
2018-12-02T08:03:02.029Z,50
2018-12-02T08:04:02.019Z,50
2018-12-02T08:05:02.004Z,55
2018-12-02T08:06:01.990Z,55
2018-12-02T08:07:01.980Z,55
2018-12-02T08:08:02.011Z,55
2018-12-02T08:09:01.958Z,55
2018-12-02T08:10:01.941Z,55
2018-12-02T08:11:02.018Z,55
2018-12-02T08:12:01.926Z,55
2018-12-02T08:13:01.908Z,55
2018-12-02T08:14:01.893Z,55
2018-12-02T08:15:01.887Z,55
2018-12-02T08:16:01.869Z,55
2018-12-02T08:17:01.860Z,55
2018-12-02T08:18:01.852Z,55
2018-12-02T08:19:01.592Z,55
2018-12-02T08:20:01.829Z,55
2018-12-02T08:21:01.815Z,55
2018-12-02T08:22:01.801Z,55
2018-12-02T08:23:01.783Z,55
2018-12-02T08:24:01.772Z,60
2018-12-02T08:25:01.778Z,60
2018-12-02T08:26:01.748Z,60
2018-12-02T08:27:01.734Z,60
2018-12-02T08:28:01.728Z,60
2018-12-02T08:29:01.709Z,60
2018-12-02T08:30:01.699Z,60
2018-12-02T08:31:01.684Z,60
2018-12-02T08:32:01.679Z,60
2018-12-02T08:33:01.669Z,65
2018-12-02T08:34:01.651Z,70
2018-12-02T08:35:01.638Z,75
2018-12-02T08:36:01.625Z,80
2018-12-02T08:37:01.654Z,80
2018-12-02T08:38:01.619Z,85
2018-12-02T08:39:01.597Z,90
2018-12-02T08:40:01.581Z,95
2018-12-02T08:41:01.331Z,90
2018-12-02T08:42:01.557Z,95
2018-12-02T08:43:01.545Z,100
2018-12-02T08:44:01.535Z,100
2018-12-02T08:45:01.524Z,100
2018-12-02T08:46:01.507Z,100
2018-12-02T08:47:01.495Z,105
2018-12-02T08:48:01.487Z,105
2018-12-02T08:49:02.683Z,105
2018-12-02T08:50:01.470Z,105
2018-12-02T08:51:01.450Z,105
2018-12-02T08:52:01.448Z,105
2018-12-02T08:53:01.433Z,110
2018-12-02T08:54:01.417Z,110
2018-12-02T08:55:01.412Z,120
2018-12-02T08:56:01.391Z,125
2018-12-02T08:57:01.381Z,125
2018-12-02T08:58:01.370Z,130
2018-12-02T08:59:01.365Z,135
2018-12-02T09:00:01.358Z,140
2018-12-02T09:01:01.343Z,145
2018-12-02T09:02:01.323Z,145
2018-12-02T09:03:01.308Z,145
2018-12-02T09:04:01.298Z,145
2018-12-02T09:05:01.287Z,145
2018-12-02T09:06:01.273Z,150
2018-12-02T09:07:01.263Z,150
2018-12-02T09:08:01.254Z,145
2018-12-02T09:09:01.241Z,140
2018-12-02T09:10:09.011Z,135
2018-12-02T09:11:01.216Z,135
2018-12-02T09:12:01.204Z,130
2018-12-02T09:13:01.199Z,130
2018-12-02T09:14:01.188Z,130
2018-12-02T09:15:01.170Z,130
2018-12-02T09:16:01.165Z,130
2018-12-02T09:17:01.150Z,130
2018-12-02T09:18:01.140Z,135
2018-12-02T09:19:01.136Z,140
2018-12-02T09:20:01.119Z,145
2018-12-02T09:21:01.117Z,150
2018-12-02T09:22:01.094Z,155
2018-12-02T09:23:01.096Z,160
2018-12-02T09:24:01.084Z,160
2018-12-02T09:25:01.065Z,155
2018-12-02T09:26:01.799Z,155
2018-12-02T09:27:01.042Z,155
2018-12-02T09:28:01.031Z,155
2018-12-02T09:29:01.019Z,155
2018-12-02T09:30:01.011Z,150
2018-12-02T09:31:01.006Z,155
2018-12-02T09:32:00.991Z,145
2018-12-02T09:33:00.975Z,145
2018-12-02T09:34:00.971Z,140
2018-12-02T09:35:00.962Z,140
2018-12-02T09:36:00.945Z,140
2018-12-02T09:37:05.241Z,140
2018-12-02T09:38:00.683Z,135
2018-12-02T09:39:00.916Z,130
2018-12-02T09:40:00.911Z,125
2018-12-02T09:41:00.905Z,115
2018-12-02T09:42:00.881Z,115
2018-12-02T09:43:00.868Z,115
2018-12-02T09:44:00.862Z,110
2018-12-02T09:45:00.850Z,110
2018-12-02T09:46:00.842Z,110
2018-12-02T09:47:00.832Z,110
2018-12-02T09:48:00.815Z,115
2018-12-02T09:49:00.813Z,115
2018-12-02T09:50:00.795Z,115
2018-12-02T09:51:00.784Z,125
2018-12-02T09:52:00.776Z,130
2018-12-02T09:53:00.765Z,130
2018-12-02T09:54:00.519Z,125
2018-12-02T09:55:00.746Z,120
2018-12-02T09:56:00.739Z,120
2018-12-02T09:57:00.723Z,115
2018-12-02T09:58:00.737Z,115
2018-12-02T09:59:00.707Z,115
2018-12-02T10:00:00.449Z,115
2018-12-02T10:01:00.695Z,115
2018-12-02T10:02:00.671Z,115
2018-12-02T10:03:00.663Z,115
2018-12-02T10:04:00.650Z,120
2018-12-02T10:05:00.694Z,120
2018-12-02T10:06:00.683Z,120
2018-12-02T10:07:00.630Z,120
2018-12-02T10:08:00.610Z,115
2018-12-02T10:09:00.607Z,115
2018-12-02T10:10:00.879Z,115
2018-12-02T10:11:00.580Z,115
2018-12-02T10:12:00.573Z,115
2018-12-02T10:13:00.559Z,110
2018-12-02T10:14:00.547Z,105
2018-12-02T10:15:00.541Z,105
2018-12-02T10:16:00.526Z,100
2018-12-02T10:17:00.520Z,95
2018-12-02T10:18:00.508Z,95
2018-12-02T10:19:00.497Z,100
2018-12-02T10:20:00.488Z,100
2018-12-02T10:21:00.477Z,100
2018-12-02T10:22:00.463Z,100
2018-12-02T10:23:00.459Z,100
2018-12-02T10:24:00.444Z,100
2018-12-02T10:25:00.435Z,100
2018-12-02T10:26:00.423Z,105
2018-12-02T10:27:00.417Z,105
2018-12-02T10:28:00.405Z,105
2018-12-02T10:29:00.394Z,105
2018-12-02T10:30:00.379Z,105
2018-12-02T10:31:00.368Z,105
2018-12-02T10:32:00.361Z,110
2018-12-02T10:33:00.366Z,110
2018-12-02T10:34:00.336Z,115
2018-12-02T10:35:00.329Z,120
2018-12-02T10:36:00.317Z,125
2018-12-02T10:37:00.306Z,125
2018-12-02T10:38:00.296Z,125
2018-12-02T10:39:00.291Z,125
2018-12-02T10:40:00.277Z,125
2018-12-02T10:41:00.265Z,125
2018-12-02T10:42:00.254Z,125
2018-12-02T10:43:00.300Z,125
2018-12-02T10:44:00.238Z,125
2018-12-02T10:45:00.226Z,125
2018-12-02T10:46:00.219Z,120
2018-12-02T10:47:00.953Z,125
2018-12-02T10:48:00.194Z,130
2018-12-02T10:49:00.186Z,135
2018-12-02T10:50:00.172Z,135
2018-12-02T10:51:00.168Z,135
2018-12-02T10:52:00.155Z,135
2018-12-02T10:53:00.143Z,135
2018-12-02T10:54:00.131Z,135
2018-12-02T10:55:00.133Z,140
2018-12-02T10:56:00.112Z,150
2018-12-02T10:57:00.099Z,155
2018-12-02T10:57:59.914Z,155
2018-12-02T10:59:00.084Z,160
2018-12-02T11:00:00.076Z,155
2018-12-02T11:01:00.079Z,155
2018-12-02T11:02:00.049Z,160
2018-12-02T11:03:00.048Z,160
2018-12-02T11:04:00.029Z,160
2018-12-02T11:05:00.023Z,155
2018-12-02T11:06:00.011Z,170
2018-12-02T11:07:00.040Z,170
2018-12-02T11:07:59.993Z,170
2018-12-02T11:08:59.986Z,170
2018-12-02T11:09:59.966Z,170
2018-12-02T11:10:59.957Z,170
2018-12-02T11:11:59.955Z,170
2018-12-02T11:12:59.951Z,165
2018-12-02T11:13:59.929Z,160
2018-12-02T11:14:59.918Z,150
2018-12-02T11:15:59.914Z,150
2018-12-02T11:16:59.908Z,150
2018-12-02T11:17:59.888Z,150
2018-12-02T11:18:59.885Z,150
2018-12-02T11:19:59.635Z,145
2018-12-02T11:20:59.855Z,145
2018-12-02T11:21:59.846Z,145
2018-12-02T11:22:59.843Z,140
2018-12-02T11:23:59.825Z,145
2018-12-02T11:24:59.817Z,150
2018-12-02T11:25:59.807Z,155
2018-12-02T11:26:59.798Z,165
2018-12-02T11:27:59.789Z,175
2018-12-02T11:28:59.790Z,190
2018-12-02T11:29:59.768Z,200
2018-12-02T11:30:59.764Z,210
2018-12-02T11:31:59.749Z,215
2018-12-02T11:32:59.739Z,220
2018-12-02T11:33:59.727Z,230
2018-12-02T11:34:59.741Z,240
2018-12-02T11:35:59.473Z,240
2018-12-02T11:36:59.701Z,235
2018-12-02T11:37:59.462Z,220
2018-12-02T11:38:59.683Z,215
2018-12-02T11:39:59.668Z,210
2018-12-02T11:40:59.663Z,205
2018-12-02T11:41:59.652Z,200
2018-12-02T11:42:59.643Z,200
2018-12-02T11:43:59.681Z,200
2018-12-02T11:44:59.624Z,195
2018-12-02T11:45:59.616Z,190
2018-12-02T11:46:59.600Z,180
2018-12-02T11:47:59.598Z,175
2018-12-02T11:48:59.589Z,165
2018-12-02T11:49:59.575Z,160
2018-12-02T11:51:00.248Z,165
2018-12-02T11:51:59.556Z,165
2018-12-02T11:52:59.572Z,175
2018-12-02T11:53:59.541Z,180
2018-12-02T11:54:59.524Z,180
2018-12-02T11:55:59.537Z,180
2018-12-02T11:56:59.515Z,185
2018-12-02T11:57:59.498Z,180
2018-12-02T11:58:59.487Z,175
2018-12-02T11:59:59.475Z,160
2018-12-02T12:00:59.472Z,160
2018-12-02T12:01:59.457Z,160
2018-12-02T12:02:59.484Z,160
2018-12-02T12:03:59.441Z,160
2018-12-02T12:04:59.431Z,155
2018-12-02T12:05:59.427Z,155
2018-12-02T12:06:59.416Z,150
2018-12-02T12:07:59.406Z,145
2018-12-02T12:08:59.443Z,140
2018-12-02T12:09:59.383Z,135
2018-12-02T12:10:59.371Z,135
2018-12-02T12:11:59.366Z,135
2018-12-02T12:12:59.355Z,130
2018-12-02T12:13:59.348Z,130
2018-12-02T12:14:59.363Z,125
2018-12-02T12:15:59.336Z,130
2018-12-02T12:16:59.317Z,130
2018-12-02T12:17:59.305Z,135
2018-12-02T12:18:59.294Z,130
2018-12-02T12:19:59.294Z,130
2018-12-02T12:20:59.280Z,125
2018-12-02T12:21:59.272Z,120
2018-12-02T12:22:59.285Z,120
2018-12-02T12:23:59.246Z,115
2018-12-02T12:24:59.243Z,125
2018-12-02T12:25:59.241Z,120
2018-12-02T12:26:59.219Z,120
2018-12-02T12:27:59.218Z,120
2018-12-02T12:28:59.198Z,115
2018-12-02T12:29:59.191Z,120
2018-12-02T12:30:59.232Z,110
2018-12-02T12:31:59.170Z,105
2018-12-02T12:32:59.174Z,105
2018-12-02T12:33:59.151Z,105
2018-12-02T12:34:59.139Z,100
2018-12-02T12:35:59.138Z,95
2018-12-02T12:36:59.123Z,100
2018-12-02T12:37:59.114Z,100
2018-12-02T12:38:59.105Z,100
2018-12-02T12:39:59.093Z,105
2018-12-02T12:40:59.080Z,100
2018-12-02T12:41:59.083Z,90
2018-12-02T12:42:59.073Z,95
2018-12-02T12:43:59.057Z,95
2018-12-02T12:44:59.042Z,90
2018-12-02T12:45:59.043Z,80
2018-12-02T12:46:59.025Z,80
2018-12-02T12:47:59.013Z,85
2018-12-02T12:48:59.018Z,90
2018-12-02T12:49:58.994Z,85
2018-12-02T12:50:58.988Z,85
2018-12-02T12:51:58.975Z,80
2018-12-02T12:52:58.960Z,80
2018-12-02T12:53:58.959Z,80
2018-12-02T12:54:58.944Z,75
2018-12-02T12:56:00.537Z,75
2018-12-02T12:56:58.923Z,70
2018-12-02T12:57:58.926Z,75
2018-12-02T12:58:58.908Z,75
2018-12-02T12:59:58.894Z,80
2018-12-02T13:00:58.888Z,75
2018-12-02T13:02:00.087Z,80
2018-12-02T13:02:58.863Z,85
2018-12-02T13:03:58.860Z,80
2018-12-02T13:04:58.847Z,75
2018-12-02T13:05:58.836Z,75
2018-12-02T13:06:58.824Z,75
2018-12-02T13:07:58.572Z,80
2018-12-02T13:08:58.802Z,80
2018-12-02T13:09:58.791Z,80
2018-12-02T13:10:58.787Z,75
2018-12-02T13:11:58.770Z,75
2018-12-02T13:12:58.758Z,70
2018-12-02T13:13:58.758Z,65
2018-12-02T13:14:58.744Z,70
2018-12-02T13:15:58.728Z,80
2018-12-02T13:16:58.726Z,85
2018-12-02T13:17:58.715Z,80
2018-12-02T13:18:58.707Z,75
2018-12-02T13:19:58.700Z,70
2018-12-02T13:20:58.692Z,75
2018-12-02T13:21:59.145Z,75
2018-12-02T13:22:58.432Z,70
2018-12-02T13:23:58.649Z,65
2018-12-02T13:24:58.647Z,60
2018-12-02T13:25:58.637Z,60
2018-12-02T13:26:58.621Z,55
2018-12-02T13:27:58.605Z,55
2018-12-02T13:28:58.596Z,55
2018-12-02T13:29:58.585Z,50
2018-12-02T13:30:58.599Z,50
2018-12-02T13:31:58.566Z,50
2018-12-02T13:32:58.554Z,55
2018-12-02T13:33:58.546Z,50
2018-12-02T13:34:58.531Z,50
2018-12-02T13:35:58.523Z,55
2018-12-02T13:36:58.503Z,50
2018-12-02T13:37:58.496Z,50
2018-12-02T13:38:58.515Z,50
2018-12-02T13:39:58.476Z,45
2018-12-02T13:40:58.227Z,40
2018-12-02T13:41:58.457Z,40
2018-12-02T13:42:58.447Z,40
2018-12-02T13:43:58.437Z,40
2018-12-02T13:44:58.422Z,40
2018-12-02T13:45:58.421Z,35
2018-12-02T13:46:58.469Z,35
2018-12-02T13:47:58.392Z,35
2018-12-02T13:48:58.383Z,30
2018-12-02T13:49:58.371Z,30
2018-12-02T13:50:58.367Z,25
2018-12-02T13:51:58.354Z,30
2018-12-02T13:52:58.382Z,30
2018-12-02T13:53:58.322Z,30
2018-12-02T13:54:58.317Z,30
2018-12-02T13:55:58.071Z,25
2018-12-02T13:56:58.290Z,25
2018-12-02T13:57:58.285Z,25
2018-12-02T13:58:58.276Z,25
2018-12-02T13:59:58.262Z,25
2018-12-02T14:00:58.257Z,20
2018-12-02T14:01:58.238Z,20
2018-12-02T14:02:58.230Z,20
2018-12-02T14:03:58.215Z,20
2018-12-02T14:04:58.205Z,20
2018-12-02T14:05:58.197Z,15
2018-12-02T14:06:58.177Z,15
2018-12-02T14:07:58.173Z,15
2018-12-02T14:08:58.159Z,15
2018-12-02T14:09:58.147Z,15
2018-12-02T14:10:58.142Z,15
2018-12-02T14:11:58.125Z,15
2018-12-02T14:12:58.117Z,15
2018-12-02T14:13:58.105Z,15
2018-12-02T14:14:58.094Z,15
2018-12-02T14:15:57.841Z,10
2018-12-02T14:16:58.073Z,15
2018-12-02T14:17:58.055Z,15
2018-12-02T14:18:58.051Z,15
2018-12-02T14:19:58.042Z,15
2018-12-02T14:20:58.018Z,10
2018-12-02T14:21:58.059Z,10